createdAt,value
2024-02-11T00:01:39.145Z,97148.66
2024-02-11T00:04:06.238Z,97147.03
2024-02-11T00:06:33.085Z,97152.31
2024-02-11T00:08:59.618Z,97147.44
2024-02-11T00:11:29.583Z,97142.59
2024-02-11T00:13:56.697Z,97147.88
2024-02-11T00:16:24.730Z,97149.94
2024-02-11T00:18:51.387Z,97149.09
2024-02-11T00:21:17.848Z,97146.69
2024-02-11T00:23:46.384Z,97145.03
2024-02-11T00:26:13.199Z,97141.00
2024-02-11T00:28:39.808Z,97135.75
2024-02-11T00:31:06.453Z,97135.75
2024-02-11T00:33:34.100Z,97131.69
2024-02-11T00:36:01.694Z,97132.09
2024-02-11T00:38:28.694Z,97141.84
2024-02-11T00:40:55.360Z,97139.22
2024-02-11T00:43:21.802Z,97139.41
2024-02-11T00:45:48.525Z,97144.31
2024-02-11T00:48:15.159Z,97139.25
2024-02-11T00:50:55.149Z,97134.56
2024-02-11T00:53:21.654Z,97127.69
2024-02-11T00:55:48.159Z,97130.94
2024-02-11T00:58:16.034Z,97130.13
2024-02-11T01:00:45.505Z,97137.00
2024-02-11T01:03:14.625Z,97135.00
2024-02-11T01:05:44.660Z,97131.31
2024-02-11T01:08:12.477Z,97128.50
2024-02-11T01:10:39.863Z,97121.00
2024-02-11T01:13:06.578Z,97122.59
2024-02-11T01:15:33.064Z,97110.22
2024-02-11T01:18:00.766Z,97121.59
2024-02-11T01:20:27.342Z,97129.50
2024-02-11T01:22:56.645Z,97116.53
2024-02-11T01:25:23.413Z,97117.53
2024-02-11T01:27:51.290Z,97117.56
2024-02-11T01:30:23.820Z,97117.56
2024-02-11T01:32:50.543Z,97115.97
2024-02-11T01:35:17.173Z,97117.19
2024-02-11T01:37:44.673Z,97120.00
2024-02-11T01:40:17.064Z,97116.31
2024-02-11T01:42:45.745Z,97096.00
2024-02-11T01:45:12.491Z,97098.06
2024-02-11T01:47:39.274Z,97094.00
2024-02-11T01:50:10.340Z,97094.00
2024-02-11T01:52:37.638Z,97100.91
2024-02-11T01:55:11.014Z,97095.22
2024-02-11T01:57:39.486Z,97105.00
2024-02-11T02:00:07.006Z,97093.25
2024-02-11T02:02:33.541Z,97092.44
2024-02-11T02:05:00.580Z,97094.03
2024-02-11T02:07:27.434Z,97094.03
2024-02-11T02:09:56.957Z,97090.00
2024-02-11T02:12:23.880Z,97097.31
2024-02-11T02:14:50.942Z,97098.16
2024-02-11T02:17:17.765Z,97089.22
2024-02-11T02:19:44.499Z,97088.78
2024-02-11T02:22:11.738Z,97085.34
2024-02-11T02:24:44.140Z,97083.91
2024-02-11T02:27:12.719Z,97080.66
2024-02-11T02:29:39.429Z,97083.06
2024-02-11T02:32:06.087Z,97074.16
2024-02-11T02:34:32.586Z,97080.25
2024-02-11T02:36:59.264Z,97075.78
2024-02-11T02:39:25.982Z,97075.34
2024-02-11T02:41:53.678Z,97069.06
2024-02-11T02:44:20.447Z,97068.84
2024-02-11T02:46:46.943Z,97066.84
2024-02-11T02:49:13.461Z,97072.91
2024-02-11T02:51:42.626Z,97065.63
2024-02-11T02:54:09.037Z,97071.88
2024-02-11T02:56:36.071Z,97070.09
2024-02-11T02:59:07.456Z,97069.47
2024-02-11T03:01:33.994Z,97065.22
2024-02-11T03:04:04.451Z,97068.91
2024-02-11T03:06:31.086Z,97063.63
2024-02-11T03:08:57.546Z,97071.94
2024-02-11T03:11:23.951Z,97064.44
2024-02-11T03:13:50.704Z,97064.44
2024-02-11T03:16:17.242Z,97070.13
2024-02-11T03:18:44.388Z,97058.91
2024-02-11T03:21:11.665Z,97064.19
2024-02-11T03:23:44.182Z,97055.88
2024-02-11T03:26:13.534Z,97056.28
2024-02-11T03:28:41.399Z,97055.47
2024-02-11T03:31:15.209Z,97058.72
2024-02-11T03:33:44.437Z,97064.16
2024-02-11T03:36:11.712Z,97070.47
2024-02-11T03:38:38.128Z,97063.56
2024-02-11T03:41:20.062Z,97074.19
2024-02-11T03:43:46.540Z,97072.59
2024-02-11T03:46:13.108Z,97074.66
2024-02-11T03:48:39.594Z,97080.34
2024-02-11T03:51:08.431Z,97072.66
2024-02-11T03:53:35.707Z,97074.25
2024-02-11T03:56:08.203Z,97069.41
2024-02-11T03:58:36.044Z,97076.31
2024-02-11T04:01:02.646Z,97062.53
2024-02-11T04:03:29.170Z,97064.78
2024-02-11T04:05:56.617Z,97067.63
2024-02-11T04:08:25.297Z,97067.22
2024-02-11T04:10:53.570Z,97069.03
2024-02-11T04:13:25.886Z,97071.47
2024-02-11T04:15:57.369Z,97070.22
2024-02-11T04:18:24.520Z,97069.84
2024-02-11T04:20:51.366Z,97065.78
2024-02-11T04:23:17.965Z,97075.28
2024-02-11T04:25:46.399Z,97071.25
2024-02-11T04:28:13.244Z,97071.03
2024-02-11T04:30:43.455Z,97068.19
2024-02-11T04:33:15.846Z,97071.03
2024-02-11T04:35:42.791Z,97067.19
2024-02-11T04:38:14.213Z,97067.38
2024-02-11T04:40:41.952Z,97068.41
2024-02-11T04:43:08.526Z,97061.69
2024-02-11T04:45:35.009Z,97058.25
2024-02-11T04:48:04.721Z,97057.28
2024-02-11T04:50:32.384Z,97059.50
2024-02-11T04:53:03.091Z,97059.31
2024-02-11T04:55:40.125Z,97052.03
2024-02-11T04:58:15.251Z,97059.13
2024-02-11T05:00:47.534Z,97053.22
2024-02-11T05:03:18.996Z,97060.13
2024-02-11T05:05:48.083Z,97057.28
2024-02-11T05:08:18.090Z,97048.78
2024-02-11T05:10:45.576Z,97056.03
2024-02-11T05:13:15.363Z,97054.22
2024-02-11T05:15:43.701Z,97056.44
2024-02-11T05:18:14.526Z,97057.84
2024-02-11T05:20:42.578Z,97048.72
2024-02-11T05:23:11.079Z,97065.56
2024-02-11T05:25:45.010Z,97063.31
2024-02-11T05:28:16.480Z,97058.84
2024-02-11T05:30:49.496Z,97058.84
2024-02-11T05:33:18.520Z,97060.50
2024-02-11T05:35:45.852Z,97056.84
2024-02-11T05:38:14.765Z,97062.72
2024-02-11T05:40:43.287Z,97060.09
2024-02-11T05:43:13.422Z,97056.41
2024-02-11T05:45:43.937Z,97062.72
2024-02-11T05:48:14.296Z,97061.09
2024-02-11T05:50:41.282Z,97065.97
2024-02-11T05:53:10.973Z,97060.50
2024-02-11T05:55:39.384Z,97063.53
2024-02-11T05:58:06.522Z,97062.94
2024-02-11T06:00:33.616Z,97067.41
2024-02-11T06:03:01.896Z,97075.50
2024-02-11T06:05:28.833Z,97073.28
2024-02-11T06:07:57.357Z,97076.94
2024-02-11T06:10:25.063Z,97076.72
2024-02-11T06:12:54.733Z,97088.06
2024-02-11T06:15:21.692Z,97079.16
2024-02-11T06:17:52.478Z,97083.81
2024-02-11T06:20:20.010Z,97087.63
2024-02-11T06:22:48.369Z,97081.78
2024-02-11T06:25:15.300Z,97086.84
2024-02-11T06:27:42.047Z,97096.97
2024-02-11T06:30:13.466Z,97091.72
2024-02-11T06:32:45.190Z,97101.81
2024-02-11T06:35:11.718Z,97099.00
2024-02-11T06:37:39.366Z,97099.81
2024-02-11T06:40:13.630Z,97102.66
2024-02-11T06:42:40.596Z,97104.69
2024-02-11T06:45:09.453Z,97111.16
2024-02-11T06:47:37.792Z,97113.78
2024-02-11T06:50:05.241Z,97120.09
2024-02-11T06:52:31.963Z,97112.38
2024-02-11T06:54:58.412Z,97119.06
2024-02-11T06:57:24.817Z,97120.09
2024-02-11T06:59:51.538Z,97122.31
2024-02-11T07:02:18.383Z,97124.97
2024-02-11T07:04:45.077Z,97128.19
2024-02-11T07:07:11.547Z,97123.94
2024-02-11T07:09:37.961Z,97128.78
2024-02-11T07:12:07.072Z,97135.47
2024-02-11T07:14:33.806Z,97126.78
2024-02-11T07:17:01.852Z,97125.75
2024-02-11T07:19:29.305Z,97134.69
2024-02-11T07:21:55.697Z,97133.84
2024-02-11T07:24:23.546Z,97130.00
2024-02-11T07:26:49.977Z,97136.28
2024-02-11T07:29:17.814Z,97140.34
2024-02-11T07:31:44.411Z,97140.75
2024-02-11T07:34:11.907Z,97135.06
2024-02-11T07:36:41.236Z,97138.75
2024-02-11T07:39:07.689Z,97143.81
2024-02-11T07:41:34.117Z,97137.72
2024-02-11T07:44:02.931Z,97141.97
2024-02-11T07:46:30.848Z,97146.66
2024-02-11T07:49:04.240Z,97139.94
2024-02-11T07:51:30.775Z,97150.47
2024-02-11T07:53:57.168Z,97144.81
2024-02-11T07:56:23.605Z,97152.94
2024-02-11T07:58:50.526Z,97151.09
2024-02-11T08:01:17.106Z,97155.34
2024-02-11T08:03:43.621Z,97158.59
2024-02-11T08:06:10.959Z,97157.97
2024-02-11T08:08:38.538Z,97153.13
2024-02-11T08:11:09.324Z,97152.09
2024-02-11T08:13:36.580Z,97156.94
2024-02-11T08:16:07.575Z,97162.63
2024-02-11T08:18:34.140Z,97164.66
2024-02-11T08:21:00.771Z,97165.88
2024-02-11T08:23:27.239Z,97169.31
2024-02-11T08:25:55.490Z,97165.47
2024-02-11T08:28:21.908Z,97164.22
2024-02-11T08:30:48.317Z,97170.75
2024-02-11T08:33:15.387Z,97167.09
2024-02-11T08:35:47.649Z,97175.63
2024-02-11T08:38:14.684Z,97170.75
2024-02-11T08:40:41.465Z,97171.94
2024-02-11T08:43:08.052Z,97175.63
2024-02-11T08:45:34.458Z,97171.56
2024-02-11T08:48:01.193Z,97180.28
2024-02-11T08:50:28.125Z,97176.84
2024-02-11T08:52:55.184Z,97174.41
2024-02-11T08:55:21.623Z,97174.41
2024-02-11T08:57:51.035Z,97175.22
2024-02-11T09:00:19.648Z,97175.19
2024-02-11T09:02:46.261Z,97176.44
2024-02-11T09:05:13.309Z,97180.47
2024-02-11T09:07:41.561Z,97178.03
2024-02-11T09:10:10.136Z,97177.22
2024-02-11T09:12:36.605Z,97182.50
2024-02-11T09:15:03.523Z,97180.47
2024-02-11T09:17:34.027Z,97187.19
2024-02-11T09:20:01.528Z,97190.41
2024-02-11T09:22:28.117Z,97184.75
2024-02-11T09:24:55.733Z,97184.09
2024-02-11T09:27:22.712Z,97189.41
2024-02-11T09:29:49.844Z,97187.97
2024-02-11T09:32:17.877Z,97178.66
2024-02-11T09:34:44.602Z,97181.69
2024-02-11T09:37:12.306Z,97180.88
2024-02-11T09:39:39.084Z,97180.88
2024-02-11T09:42:05.847Z,97182.06
2024-02-11T09:44:36.020Z,97181.66
2024-02-11T09:47:04.429Z,97182.03
2024-02-11T09:49:32.529Z,97181.97
2024-02-11T09:52:04.003Z,97182.66
2024-02-11T09:54:32.534Z,97185.28
2024-02-11T09:56:59.037Z,97186.47
2024-02-11T09:59:27.971Z,97188.50
2024-02-11T10:01:57.442Z,97186.91
2024-02-11T10:04:33.589Z,97187.09
2024-02-11T10:07:02.763Z,97195.59
2024-02-11T10:09:29.400Z,97183.63
2024-02-11T10:11:56.890Z,97188.50
2024-02-11T10:14:27.730Z,97190.09
2024-02-11T10:16:54.643Z,97177.81
2024-02-11T10:19:24.405Z,97180.69
2024-02-11T10:21:51.948Z,97179.66
2024-02-11T10:24:18.820Z,97195.72
2024-02-11T10:26:51.307Z,97191.66
2024-02-11T10:29:22.094Z,97193.13
2024-02-11T10:31:48.972Z,97193.50
2024-02-11T10:34:16.019Z,97193.94
2024-02-11T10:36:42.616Z,97193.13
2024-02-11T10:39:09.100Z,97194.75
2024-02-11T10:41:38.191Z,97196.38
2024-02-11T10:44:06.940Z,97194.94
2024-02-11T10:46:34.521Z,97193.13
2024-02-11T10:49:01.893Z,97196.19
2024-02-11T10:51:39.628Z,97188.41
2024-02-11T10:54:06.726Z,97196.19
2024-02-11T10:56:35.439Z,97196.19
2024-02-11T10:59:11.510Z,97192.09
2024-02-11T11:01:39.833Z,97198.59
2024-02-11T11:04:14.633Z,97185.19
2024-02-11T11:06:42.381Z,97194.31
2024-02-11T11:09:10.965Z,97194.13
2024-02-11T11:11:37.593Z,97189.81
2024-02-11T11:14:10.992Z,97192.06
2024-02-11T11:16:44.146Z,97192.44
2024-02-11T11:19:16.964Z,97192.06
2024-02-11T11:21:58.214Z,97193.66
2024-02-11T11:24:24.879Z,97188.38
2024-02-11T11:26:52.722Z,97188.78
2024-02-11T11:29:20.456Z,97190.41
2024-02-11T11:31:47.332Z,97186.16
2024-02-11T11:34:14.269Z,97187.16
2024-02-11T11:36:40.850Z,97193.44
2024-02-11T11:39:07.990Z,97190.38
2024-02-11T11:41:34.514Z,97186.31
2024-02-11T11:44:02.170Z,97192.81
2024-02-11T11:46:28.807Z,97192.44
2024-02-11T11:48:59.142Z,97201.78
2024-02-11T11:51:26.116Z,97192.41
2024-02-11T11:53:52.667Z,97195.03
2024-02-11T11:56:20.153Z,97196.06
2024-02-11T11:58:52.031Z,97191.19
2024-02-11T12:01:20.281Z,97203.34
2024-02-11T12:03:46.903Z,97194.00
2024-02-11T12:06:13.937Z,97194.00
2024-02-11T12:08:40.700Z,97195.22
2024-02-11T12:11:09.311Z,97193.59
2024-02-11T12:13:38.263Z,97200.50
2024-02-11T12:16:07.459Z,97195.22
2024-02-11T12:18:36.384Z,97200.09
2024-02-11T12:21:03.031Z,97197.06
2024-02-11T12:23:32.589Z,97199.91
2024-02-11T12:26:00.790Z,97201.50
2024-02-11T12:28:28.805Z,97201.78
2024-02-11T12:31:12.401Z,97196.06
2024-02-11T12:33:44.279Z,97202.53
2024-02-11T12:36:12.587Z,97200.94
2024-02-11T12:38:44.800Z,97199.91
2024-02-11T12:41:12.782Z,97196.22
2024-02-11T12:43:42.798Z,97202.53
2024-02-11T12:46:09.894Z,97206.22
2024-02-11T12:48:39.881Z,97204.56
2024-02-11T12:51:06.792Z,97202.53
2024-02-11T12:53:34.933Z,97202.53
2024-02-11T12:56:06.759Z,97204.16
2024-02-11T12:58:33.963Z,97217.97
2024-02-11T13:01:01.269Z,97212.69
2024-02-11T13:03:28.620Z,97211.66
2024-02-11T13:05:55.422Z,97217.16
2024-02-11T13:08:24.665Z,97215.72
2024-02-11T13:10:51.469Z,97220.38
2024-02-11T13:13:18.098Z,97220.16
2024-02-11T13:15:45.377Z,97221.94
2024-02-11T13:18:15.923Z,97233.78
2024-02-11T13:20:45.660Z,97228.06
2024-02-11T13:23:12.933Z,97230.06
2024-02-11T13:25:41.888Z,97233.34
2024-02-11T13:28:10.353Z,97231.72
2024-02-11T13:30:38.248Z,97230.06
2024-02-11T13:33:11.111Z,97238.63
2024-02-11T13:35:42.318Z,97240.25
2024-02-11T13:38:10.011Z,97247.56
2024-02-11T13:40:37.354Z,97242.28
2024-02-11T13:43:04.237Z,97250.84
2024-02-11T13:45:31.713Z,97251.25
2024-02-11T13:48:01.792Z,97254.09
2024-02-11T13:50:30.614Z,97253.47
2024-02-11T13:52:58.526Z,97252.06
2024-02-11T13:55:25.369Z,97249.84
2024-02-11T13:57:52.293Z,97259.59
2024-02-11T14:00:19.564Z,97261.41
2024-02-11T14:02:46.173Z,97256.53
2024-02-11T14:05:13.025Z,97263.47
2024-02-11T14:07:39.708Z,97261.81
2024-02-11T14:10:06.859Z,97271.00
2024-02-11T14:12:36.981Z,97264.31
2024-02-11T14:15:12.711Z,97272.22
2024-02-11T14:17:47.736Z,97272.41
2024-02-11T14:20:15.696Z,97274.66
2024-02-11T14:22:43.905Z,97271.63
2024-02-11T14:25:16.499Z,97276.47
2024-02-11T14:27:48.427Z,97278.34
2024-02-11T14:30:17.332Z,97281.41
2024-02-11T14:32:44.440Z,97285.44
2024-02-11T14:35:14.572Z,97281.41
2024-02-11T14:37:44.781Z,97284.03
2024-02-11T14:40:13.946Z,97285.22
2024-02-11T14:42:41.774Z,97286.69
2024-02-11T14:45:09.663Z,97284.63
2024-02-11T14:47:37.434Z,97293.16
2024-02-11T14:50:09.863Z,97289.91
2024-02-11T14:52:39.664Z,97284.19
2024-02-11T14:55:07.531Z,97299.44
2024-02-11T14:57:34.911Z,97294.75
2024-02-11T15:00:03.175Z,97301.28
2024-02-11T15:02:29.748Z,97295.16
2024-02-11T15:04:56.923Z,97306.56
2024-02-11T15:07:23.668Z,97307.75
2024-02-11T15:09:51.994Z,97307.34
2024-02-11T15:12:18.753Z,97308.97
2024-02-11T15:14:47.722Z,97310.19
2024-02-11T15:17:15.702Z,97311.41
2024-02-11T15:19:43.090Z,97315.47
2024-02-11T15:22:11.750Z,97323.59
2024-02-11T15:24:39.200Z,97326.84
2024-02-11T15:27:06.470Z,97330.50
2024-02-11T15:29:33.351Z,97329.09
2024-02-11T15:31:59.797Z,97329.28
2024-02-11T15:34:26.419Z,97332.97
2024-02-11T15:36:53.313Z,97337.81
2024-02-11T15:39:23.154Z,97341.06
2024-02-11T15:41:51.412Z,97341.66
2024-02-11T15:44:18.393Z,97342.28
2024-02-11T15:46:44.882Z,97347.97
2024-02-11T15:49:11.492Z,97349.59
2024-02-11T15:51:38.659Z,97355.28
2024-02-11T15:54:05.942Z,97349.59
2024-02-11T15:56:32.493Z,97358.53
2024-02-11T15:59:00.272Z,97355.28
2024-02-11T16:01:27.520Z,97355.28
2024-02-11T16:03:54.154Z,97357.50
2024-02-11T16:06:22.118Z,97365.44
2024-02-11T16:08:50.731Z,97369.50
2024-02-11T16:11:17.636Z,97371.53
2024-02-11T16:13:46.703Z,97378.22
2024-02-11T16:16:14.726Z,97374.38
2024-02-11T16:18:41.440Z,97384.72
2024-02-11T16:21:10.874Z,97384.72
2024-02-11T16:23:37.822Z,97384.13
2024-02-11T16:26:04.357Z,97392.25
2024-02-11T16:28:31.712Z,97395.91
2024-02-11T16:30:59.256Z,97394.28
2024-02-11T16:33:34.068Z,97394.28
2024-02-11T16:36:01.556Z,97396.50
2024-02-11T16:38:28.208Z,97396.72
2024-02-11T16:40:56.148Z,97403.84
2024-02-11T16:43:23.525Z,97405.69
2024-02-11T16:45:50.077Z,97411.75
2024-02-11T16:48:16.654Z,97406.06
2024-02-11T16:50:46.355Z,97414.59
2024-02-11T16:53:12.797Z,97409.72
2024-02-11T16:55:40.439Z,97421.31
2024-02-11T16:58:08.350Z,97416.63
2024-02-11T17:00:35.640Z,97428.41
2024-02-11T17:03:02.797Z,97431.25
2024-02-11T17:05:29.518Z,97426.78
2024-02-11T17:07:56.357Z,97428.81
2024-02-11T17:10:22.861Z,97426.38
2024-02-11T17:12:50.100Z,97440.16
2024-02-11T17:15:16.800Z,97437.53
2024-02-11T17:17:44.431Z,97442.81
2024-02-11T17:22:44.211Z,97449.94
2024-02-11T17:25:10.632Z,97444.25
2024-02-11T17:27:39.023Z,97451.16
2024-02-11T17:30:07.711Z,97447.91
2024-02-11T17:32:42.661Z,97453.16
2024-02-11T17:35:16.165Z,97456.00
2024-02-11T17:37:43.059Z,97463.31
2024-02-11T17:40:11.584Z,97451.16
2024-02-11T17:42:40.004Z,97467.00
2024-02-11T17:45:13.258Z,97475.31
2024-02-11T17:47:41.567Z,97468.63
2024-02-11T17:50:13.033Z,97483.25
2024-02-11T17:52:39.734Z,97473.88
2024-02-11T17:55:09.898Z,97488.13
2024-02-11T17:57:46.729Z,97476.75
2024-02-11T18:00:16.359Z,97481.00
2024-02-11T18:02:42.893Z,97482.84
2024-02-11T18:05:13.077Z,97472.69
2024-02-11T18:07:47.433Z,97481.22
2024-02-11T18:10:16.834Z,97495.03
2024-02-11T18:12:47.946Z,97488.53
2024-02-11T18:15:16.895Z,97494.63
2024-02-11T18:17:46.021Z,97499.50
2024-02-11T18:20:14.194Z,97497.91
2024-02-11T18:22:42.546Z,97510.06
2024-02-11T18:25:10.359Z,97531.41
2024-02-11T18:27:36.858Z,97515.34
2024-02-11T18:30:07.369Z,97503.56
2024-02-11T18:32:39.870Z,97514.56
2024-02-11T18:35:12.959Z,97533.22
2024-02-11T18:37:39.518Z,97537.91
2024-02-11T18:40:10.318Z,97530.81
2024-02-11T18:42:37.513Z,97528.34
2024-02-11T18:45:04.615Z,97525.09
2024-02-11T18:47:31.127Z,97548.28
2024-02-11T18:49:59.447Z,97525.94
2024-02-11T18:52:26.939Z,97534.44
2024-02-11T18:54:53.804Z,97542.78
2024-02-11T18:57:22.174Z,97543.00
2024-02-11T18:59:49.012Z,97549.09
2024-02-11T19:02:15.470Z,97549.88
2024-02-11T19:04:43.624Z,97556.78
2024-02-11T19:07:14.550Z,97571.59
2024-02-11T19:09:43.341Z,97556.56
2024-02-11T19:12:11.612Z,97560.44
2024-02-11T19:14:39.136Z,97574.66
2024-02-11T19:17:06.735Z,97574.66
2024-02-11T19:19:35.579Z,97592.94
2024-02-11T19:22:10.513Z,97579.94
2024-02-11T19:24:41.661Z,97590.31
2024-02-11T19:27:09.873Z,97598.63
2024-02-11T19:29:36.271Z,97592.16
2024-02-11T19:32:07.042Z,97596.22
2024-02-11T19:34:36.377Z,97574.69
2024-02-11T19:37:06.770Z,97588.88
2024-02-11T19:39:34.279Z,97593.75
2024-02-11T19:42:01.399Z,97612.88
2024-02-11T19:44:31.278Z,97614.88
2024-02-11T19:47:01.315Z,97601.47
2024-02-11T19:49:29.679Z,97599.03
2024-02-11T19:51:57.145Z,97622.19
2024-02-11T19:54:23.998Z,97616.50
2024-02-11T19:56:50.633Z,97607.16
2024-02-11T19:59:17.090Z,97614.88
2024-02-11T20:01:47.430Z,97627.06
2024-02-11T20:04:14.074Z,97630.72
2024-02-11T20:06:43.686Z,97655.91
2024-02-11T20:09:13.421Z,97640.25
2024-02-11T20:11:47.148Z,97636.41
2024-02-11T20:14:15.663Z,97656.72
2024-02-11T20:16:45.146Z,97645.16
2024-02-11T20:19:12.486Z,97659.19
2024-02-11T20:21:39.001Z,97673.38
2024-02-11T20:24:07.519Z,97660.97
2024-02-11T20:26:34.088Z,97669.13
2024-02-11T20:29:00.578Z,97675.38
2024-02-11T20:31:27.801Z,97684.97
2024-02-11T20:33:57.434Z,97681.06
2024-02-11T20:36:24.807Z,97700.16
2024-02-11T20:38:53.072Z,97692.66
2024-02-11T20:41:20.321Z,97701.19
2024-02-11T20:43:47.048Z,97702.59
2024-02-11T20:46:13.956Z,97728.59
2024-02-11T20:48:41.833Z,97711.94
2024-02-11T20:51:09.384Z,97710.50
2024-02-11T20:53:35.853Z,97731.84
2024-02-11T20:56:03.696Z,97720.44
2024-02-11T20:58:34.364Z,97738.91
2024-02-11T21:01:02.793Z,97730.63
2024-02-11T21:03:29.494Z,97732.41
2024-02-11T21:05:56.482Z,97741.94
2024-02-11T21:08:23.120Z,97753.75
2024-02-11T21:10:49.622Z,97731.00
2024-02-11T21:13:17.752Z,97720.81
2024-02-11T21:15:45.469Z,97745.22
2024-02-11T21:18:12.662Z,97751.75
2024-02-11T21:20:39.411Z,97752.13
2024-02-11T21:23:05.943Z,97755.00
2024-02-11T21:25:32.489Z,97771.63
2024-02-11T21:27:59.253Z,97764.72
2024-02-11T21:30:27.968Z,97765.09
2024-02-11T21:32:58.370Z,97775.66
2024-02-11T21:35:26.919Z,97787.03
2024-02-11T21:37:53.516Z,97769.56
2024-02-11T21:40:20.426Z,97776.88
2024-02-11T21:42:46.920Z,97789.66
2024-02-11T21:45:13.457Z,97789.44
2024-02-11T21:47:41.941Z,97789.00
2024-02-11T21:50:11.897Z,97806.28
2024-02-11T21:52:40.796Z,97802.06
2024-02-11T21:55:10.636Z,97807.72
2024-02-11T21:57:43.579Z,97805.69
2024-02-11T22:00:12.272Z,97797.59
2024-02-11T22:02:43.385Z,97814.63
2024-02-11T22:05:10.687Z,97813.00
2024-02-11T22:07:38.337Z,97807.34
2024-02-11T22:10:13.182Z,97815.41
2024-02-11T22:12:42.682Z,97811.16
2024-02-11T22:15:09.188Z,97799.97
2024-02-11T22:17:36.850Z,97818.03
2024-02-11T22:20:05.639Z,97818.22
2024-02-11T22:22:32.487Z,97825.16
2024-02-11T22:25:01.157Z,97818.69
2024-02-11T22:27:30.319Z,97821.06
2024-02-11T22:29:59.323Z,97822.31
2024-02-11T22:32:27.949Z,97816.59
2024-02-11T22:34:57.802Z,97842.44
2024-02-11T22:37:24.812Z,97837.53
2024-02-11T22:39:51.659Z,97836.91
2024-02-11T22:42:22.267Z,97832.25
2024-02-11T22:44:49.109Z,97833.25
2024-02-11T22:47:19.035Z,97831.44
2024-02-11T22:49:46.000Z,97843.81
2024-02-11T22:52:13.152Z,97861.69
2024-02-11T22:54:40.621Z,97837.34
2024-02-11T22:57:07.431Z,97839.56
2024-02-11T22:59:33.927Z,97850.91
2024-02-11T23:02:02.117Z,97857.59
2024-02-11T23:04:30.224Z,97853.13
2024-02-11T23:07:00.376Z,97855.38
2024-02-11T23:09:28.920Z,97860.72
2024-02-11T23:11:59.794Z,97859.22
2024-02-11T23:14:28.119Z,97864.72
2024-02-11T23:16:55.960Z,97862.66
2024-02-11T23:19:26.478Z,97869.41
2024-02-11T23:21:56.805Z,97872.25
2024-02-11T23:24:26.982Z,97889.31
2024-02-11T23:26:55.366Z,97887.31
2024-02-11T23:29:25.240Z,97873.91
2024-02-11T23:31:52.271Z,97879.63
2024-02-11T23:34:23.152Z,97897.50
2024-02-11T23:36:50.023Z,97877.75
2024-02-11T23:39:25.369Z,97878.38
2024-02-11T23:41:51.855Z,97883.66
2024-02-11T23:44:19.303Z,97882.25
2024-02-11T23:46:48.557Z,97879.22
2024-02-11T23:49:20.801Z,97880.66
2024-02-11T23:51:48.444Z,97887.75
2024-02-11T23:54:16.577Z,97880.00
2024-02-11T23:56:43.175Z,97888.94
2024-02-11T23:59:12.216Z,97882.88
